Time;durP1;ratioP1;P1;durP2;ratioP2;P2;SDS_P1;SDS_P2;PMS_P1;PMS_P2;Temp;Humidity;BMP_temperature;BMP_pressure;BME280_temperature;BME280_humidity;BME280_pressure;Samples;Min_cycle;Max_cycle;Signal;HPM_P1;HPM_P2
2021/12/05 00:20:09;;;;;;;4.90;1.88;;;4.40;96.40;;;;;;2074561;28;20057;-90
2021/12/05 00:22:39;;;;;;;6.93;1.80;;;4.40;96.40;;;;;;2084299;28;20111;-90
2021/12/05 00:23:45;;;;;;;4.53;1.90;;;4.40;96.40;;;;;;2085586;28;20013;-91
2021/12/05 00:24:49;;;;;;;6.50;1.80;;;4.40;96.40;;;;;;2090636;28;20013;-91
2021/12/05 00:25:53;;;;;;;5.20;1.90;;;4.40;96.50;;;;;;2089406;28;20036;-91
2021/12/05 00:27:06;;;;;;;5.93;1.80;;;4.30;96.40;;;;;;2081217;28;20029;-91
2021/12/05 00:28:42;;;;;;;6.80;1.73;;;4.40;96.50;;;;;;2083478;28;20026;-91
2021/12/05 00:29:55;;;;;;;6.07;1.83;;;4.40;96.50;;;;;;2089588;28;20033;-91
2021/12/05 00:31:16;;;;;;;3.95;1.73;;;4.30;96.50;;;;;;2073249;28;20432;-91
2021/12/05 00:32:49;;;;;;;3.95;1.50;;;4.30;96.50;;;;;;2074722;28;20028;-90
2021/12/05 01:07:03;;;;;;;4.10;1.65;;;4.20;96.40;;;;;;2089926;28;20115;-89
2021/12/05 01:08:19;;;;;;;3.70;1.40;;;4.20;96.40;;;;;;2090052;28;20111;-90
2021/12/05 01:15:49;;;;;;;6.32;1.58;;;4.20;96.30;;;;;;2090072;28;20035;-90
2021/12/05 01:16:50;;;;;;;6.75;1.77;;;4.20;96.30;;;;;;2088603;28;20022;-90
2021/12/05 01:19:00;;;;;;;4.43;1.60;;;4.20;96.30;;;;;;2082386;28;20034;-90
2021/12/05 01:20:04;;;;;;;5.57;1.60;;;4.20;96.30;;;;;;2084529;28;20032;-90
2021/12/05 01:21:10;;;;;;;4.68;1.48;;;4.20;96.30;;;;;;2082016;28;20420;-90
2021/12/05 01:22:13;;;;;;;6.72;1.70;;;4.20;96.30;;;;;;2087973;28;20087;-90
2021/12/05 01:23:29;;;;;;;5.75;1.77;;;4.20;96.30;;;;;;2089277;28;20041;-91
2021/12/05 01:27:16;;;;;;;4.82;1.48;;;4.20;96.30;;;;;;2089216;28;20032;-91
2021/12/05 01:30:50;;;;;;;7.15;2.17;;;4.20;96.20;;;;;;2089112;28;20023;-90
2021/12/05 01:32:41;;;;;;;;;;;4.20;96.20;;;;;;2071541;28;20022;-90
2021/12/05 01:33:34;;;;;;;3.88;1.60;;;4.20;96.20;;;;;;2076278;28;20437;-91
2021/12/05 01:34:58;;;;;;;;;;;4.20;96.20;;;;;;2082092;28;20040;-91
2021/12/05 01:36:10;;;;;;;4.30;1.40;;;4.20;96.20;;;;;;2080175;28;20007;-91
2021/12/05 01:37:31;;;;;;;5.18;1.52;;;4.20;96.10;;;;;;2089850;28;20024;-91
2021/12/05 01:45:55;;;;;;;6.20;1.60;;;4.20;96.10;;;;;;2080990;28;20032;-91
2021/12/05 01:49:50;;;;;;;4.93;1.50;;;4.20;96.10;;;;;;2082665;28;20143;-91
2021/12/05 02:09:43;;;;;;;5.63;1.35;;;4.20;96.00;;;;;;2089154;28;20506;-91
2021/12/05 02:12:17;;;;;;;9.63;1.80;;;4.20;96.00;;;;;;2089131;28;20494;-92
2021/12/05 02:29:57;;;;;;;4.60;1.50;;;4.10;95.90;;;;;;2070698;28;20033;-87
2021/12/05 02:31:20;;;;;;;4.95;1.77;;;4.10;95.80;;;;;;2084111;28;20045;-88
2021/12/05 02:36:08;;;;;;;5.53;1.60;;;4.10;95.80;;;;;;2070347;28;20026;-91
2021/12/05 02:38:39;;;;;;;5.10;1.60;;;4.10;95.90;;;;;;2074148;28;20018;-90
2021/12/05 02:41:17;;;;;;;5.47;1.33;;;4.10;95.90;;;;;;2069638;28;20034;-90
2021/12/05 02:42:13;;;;;;;5.45;1.70;;;4.10;96.20;;;;;;2073455;28;20046;-90
2021/12/05 02:43:28;;;;;;;6.18;1.70;;;4.10;95.90;;;;;;2073333;28;20140;-91
2021/12/05 02:44:29;;;;;;;4.80;1.85;;;4.10;95.90;;;;;;2067824;28;20019;-90
2021/12/05 02:45:31;;;;;;;5.75;1.50;;;4.10;95.90;;;;;;2066156;28;20035;-90
2021/12/05 02:46:32;;;;;;;6.22;1.60;;;4.10;95.90;;;;;;2064609;28;20054;-91
2021/12/05 02:47:34;;;;;;;5.47;1.42;;;4.00;95.90;;;;;;2057230;28;20559;-91
2021/12/05 02:48:37;;;;;;;6.70;1.80;;;4.10;95.90;;;;;;2055938;28;20066;-91
2021/12/05 02:49:40;;;;;;;5.95;1.90;;;4.00;95.90;;;;;;2063420;28;20037;-90
2021/12/05 02:50:42;;;;;;;6.00;1.90;;;4.00;95.90;;;;;;2072107;28;20400;-90
2021/12/05 02:51:52;;;;;;;5.85;1.45;;;4.10;95.90;;;;;;2071175;28;20049;-90
2021/12/05 02:53:02;;;;;;;5.90;1.85;;;4.10;95.90;;;;;;2072493;28;20057;-90
2021/12/05 02:55:12;;;;;;;5.95;1.92;;;4.10;95.90;;;;;;2066769;28;20026;-91
2021/12/05 02:56:14;;;;;;;10.13;2.10;;;4.10;95.90;;;;;;2071105;28;20026;-91
2021/12/05 02:57:18;;;;;;;5.22;1.52;;;4.10;95.90;;;;;;2057216;28;20031;-90
2021/12/05 03:00:40;;;;;;;7.00;2.10;;;4.10;95.80;;;;;;2073081;28;20029;-90
2021/12/05 03:01:45;;;;;;;5.97;1.67;;;4.10;95.80;;;;;;2065052;28;20023;-91
2021/12/05 03:02:50;;;;;;;6.72;1.70;;;4.10;95.80;;;;;;2065365;28;20114;-90
2021/12/05 03:03:53;;;;;;;5.47;1.77;;;4.10;95.80;;;;;;2056925;28;20023;-91
2021/12/05 03:04:57;;;;;;;6.28;2.00;;;4.10;95.80;;;;;;2064100;28;20124;-91
2021/12/05 03:06:12;;;;;;;6.40;1.90;;;4.10;95.80;;;;;;2073731;28;20057;-90
2021/12/05 03:07:15;;;;;;;5.53;1.77;;;4.10;95.80;;;;;;2066541;28;20049;-91
2021/12/05 03:08:16;;;;;;;4.90;1.50;;;4.10;95.80;;;;;;2057045;28;20402;-90
2021/12/05 03:09:16;;;;;;;7.50;2.08;;;4.10;95.80;;;;;;2057065;28;20103;-90
2021/12/05 03:10:21;;;;;;;8.68;2.25;;;4.10;95.80;;;;;;2059900;28;20101;-90
2021/12/05 03:11:23;;;;;;;6.97;1.80;;;4.10;95.80;;;;;;2073043;28;20068;-90
2021/12/05 03:12:24;;;;;;;5.80;1.95;;;4.10;95.80;;;;;;2054949;28;20074;-90
2021/12/05 03:13:25;;;;;;;5.03;1.85;;;4.10;95.80;;;;;;2048991;28;20035;-91
2021/12/05 03:14:26;;;;;;;7.45;1.80;;;4.20;95.80;;;;;;2048991;28;20449;-91
2021/12/05 03:15:27;;;;;;;6.15;1.60;;;4.10;95.80;;;;;;2065264;28;20077;-90
2021/12/05 03:16:30;;;;;;;6.03;1.95;;;4.10;95.80;;;;;;2074518;28;20026;-90
2021/12/05 03:17:32;;;;;;;5.97;2.08;;;4.20;95.80;;;;;;2065236;28;20034;-90
2021/12/05 03:18:33;;;;;;;10.02;2.03;;;4.20;95.80;;;;;;2074664;28;20029;-90
2021/12/05 03:19:34;;;;;;;7.32;2.35;;;4.20;95.80;;;;;;2070091;28;20038;-90
2021/12/05 03:20:35;;;;;;;6.28;2.13;;;4.10;95.80;;;;;;2071180;28;20045;-91
2021/12/05 03:21:37;;;;;;;6.43;1.90;;;4.20;95.80;;;;;;2086342;28;20131;-90
2021/12/05 03:22:38;;;;;;;5.20;1.77;;;4.20;95.80;;;;;;2087439;28;20494;-90
2021/12/05 03:23:43;;;;;;;5.63;2.40;;;4.10;95.80;;;;;;2076344;28;20030;-91
2021/12/05 03:24:44;;;;;;;5.13;2.00;;;4.10;95.80;;;;;;2090047;28;20023;-90
2021/12/05 03:25:45;;;;;;;7.15;1.92;;;4.10;95.80;;;;;;2090704;28;20028;-91
2021/12/05 03:26:51;;;;;;;6.35;1.88;;;4.10;95.80;;;;;;2089791;28;20118;-91
2021/12/05 03:27:52;;;;;;;6.82;2.03;;;4.10;95.80;;;;;;2090251;28;20491;-90
2021/12/05 03:28:55;;;;;;;7.65;2.35;;;4.10;95.80;;;;;;2087793;28;20025;-90
2021/12/05 03:29:56;;;;;;;7.90;2.35;;;4.10;95.80;;;;;;2087778;28;20040;-90
2021/12/05 03:30:57;;;;;;;9.25;2.15;;;4.10;95.80;;;;;;2085704;28;20025;-90
2021/12/05 03:31:58;;;;;;;7.47;2.00;;;4.10;95.70;;;;;;2073462;28;20033;-90
2021/12/05 03:33:00;;;;;;;7.75;1.75;;;4.10;95.80;;;;;;2074254;28;20030;-91
2021/12/05 03:34:02;;;;;;;6.13;1.77;;;4.10;95.70;;;;;;2072302;28;20369;-90
2021/12/05 03:35:05;;;;;;;5.05;2.00;;;4.10;95.70;;;;;;2074734;28;20071;-90
2021/12/05 03:36:09;;;;;;;5.53;1.90;;;4.10;95.70;;;;;;2090893;28;20067;-90
2021/12/05 03:37:11;;;;;;;5.72;1.70;;;4.10;95.70;;;;;;2089738;28;20530;-91
2021/12/05 03:38:11;;;;;;;4.43;1.52;;;4.10;95.70;;;;;;2090631;28;20029;-91
2021/12/05 03:39:13;;;;;;;4.97;1.55;;;4.10;95.80;;;;;;2074191;28;20026;-90
2021/12/05 03:40:19;;;;;;;4.72;1.70;;;4.10;95.70;;;;;;2079962;28;20124;-91
2021/12/05 03:41:20;;;;;;;6.65;2.10;;;4.10;95.70;;;;;;2097967;28;20112;-90
2021/12/05 03:42:21;;;;;;;6.28;1.83;;;4.20;95.80;;;;;;2090122;28;20029;-91
2021/12/05 03:43:22;;;;;;;6.00;1.50;;;4.20;95.80;;;;;;2083024;28;20067;-91
2021/12/05 03:44:26;;;;;;;6.68;1.88;;;4.10;95.70;;;;;;2083131;28;20029;-90
2021/12/05 03:45:31;;;;;;;7.78;2.03;;;4.10;95.70;;;;;;2086333;28;20064;-91
2021/12/05 03:46:32;;;;;;;6.35;1.85;;;4.10;95.70;;;;;;2092087;28;20036;-91
2021/12/05 03:47:33;;;;;;;5.35;2.00;;;4.10;95.70;;;;;;2090561;28;20021;-90
2021/12/05 03:48:40;;;;;;;5.68;2.05;;;4.10;95.70;;;;;;2090611;28;20036;-91
2021/12/05 03:49:42;;;;;;;8.48;1.90;;;4.20;95.70;;;;;;2079591;28;20018;-91
2021/12/05 03:50:44;;;;;;;6.55;1.65;;;4.20;95.70;;;;;;2081673;28;20468;-91
2021/12/05 03:52:15;;;;;;;5.10;1.60;;;4.10;95.70;;;;;;2077362;28;20022;-90
2021/12/05 03:53:17;;;;;;;4.70;1.67;;;4.10;95.70;;;;;;2081583;28;20029;-90
2021/12/05 03:54:18;;;;;;;5.05;1.50;;;4.20;95.70;;;;;;2073283;28;20034;-91
2021/12/05 03:55:20;;;;;;;6.57;1.70;;;4.10;95.70;;;;;;2074061;28;20030;-90
2021/12/05 03:56:22;;;;;;;5.60;1.58;;;4.20;95.70;;;;;;2080792;28;20021;-91
2021/12/05 03:57:23;;;;;;;4.03;1.30;;;4.20;95.70;;;;;;2097343;28;20021;-90
2021/12/05 03:58:24;;;;;;;5.13;1.52;;;4.20;95.70;;;;;;2089535;28;20095;-90
2021/12/05 03:59:28;;;;;;;5.85;1.55;;;4.10;95.70;;;;;;2092114;28;20026;-90
2021/12/05 04:00:35;;;;;;;4.68;1.65;;;4.20;95.70;;;;;;2099548;28;20093;-90
2021/12/05 04:01:37;;;;;;;6.55;1.58;;;4.20;95.70;;;;;;2092515;28;20029;-91
2021/12/05 04:02:38;;;;;;;4.68;1.70;;;4.20;95.70;;;;;;2092653;28;20028;-90
2021/12/05 04:03:40;;;;;;;6.00;1.70;;;4.20;96.00;;;;;;2090998;28;20025;-91
2021/12/05 04:04:42;;;;;;;4.53;1.50;;;4.20;95.70;;;;;;2084435;28;20036;-91
2021/12/05 04:05:44;;;;;;;5.43;1.48;;;4.20;95.70;;;;;;2083291;28;20056;-91
2021/12/05 04:06:46;;;;;;;6.43;1.92;;;4.20;95.70;;;;;;2090373;28;20029;-91
2021/12/05 04:07:47;;;;;;;5.85;1.70;;;4.20;95.80;;;;;;2082765;28;20036;-91
2021/12/05 04:08:49;;;;;;;4.53;1.60;;;4.20;95.70;;;;;;2074731;28;20060;-90
2021/12/05 04:09:50;;;;;;;6.82;1.83;;;4.20;95.70;;;;;;2082697;28;20499;-91
2021/12/05 04:10:55;;;;;;;4.82;1.58;;;4.20;95.70;;;;;;2091450;28;20032;-91
2021/12/05 04:12:01;;;;;;;6.05;1.52;;;4.20;95.70;;;;;;2093224;28;20021;-90
2021/12/05 04:13:03;;;;;;;5.78;1.75;;;4.20;95.70;;;;;;2096237;28;20021;-91
2021/12/05 04:14:08;;;;;;;5.80;1.60;;;4.20;95.70;;;;;;2100736;28;20016;-87
2021/12/05 04:15:10;;;;;;;5.93;1.50;;;4.20;95.70;;;;;;2098124;28;20029;-86
2021/12/05 04:16:13;;;;;;;7.25;1.77;;;4.20;95.70;;;;;;2100718;28;20013;-89
2021/12/05 04:17:16;;;;;;;6.68;1.77;;;4.20;95.90;;;;;;2100570;28;20044;-88
2021/12/05 04:18:17;;;;;;;4.70;1.92;;;4.20;95.60;;;;;;2092506;28;20049;-90
2021/12/05 04:19:18;;;;;;;5.45;1.65;;;4.20;95.90;;;;;;2091716;28;20020;-90
2021/12/05 04:20:20;;;;;;;5.13;1.70;;;4.20;95.60;;;;;;2100384;28;20029;-91
2021/12/05 04:21:21;;;;;;;5.13;2.00;;;4.20;95.60;;;;;;2082550;28;20069;-91
2021/12/05 04:22:22;;;;;;;6.43;2.00;;;4.20;95.70;;;;;;2074855;28;20038;-91
2021/12/05 04:23:23;;;;;;;5.97;1.80;;;4.20;95.60;;;;;;2071827;28;20117;-90
2021/12/05 04:24:23;;;;;;;6.43;2.20;;;4.20;95.60;;;;;;2074280;28;20464;-91
2021/12/05 04:25:26;;;;;;;7.00;2.30;;;4.20;95.60;;;;;;2089091;28;20028;-90
2021/12/05 04:26:27;;;;;;;7.07;2.03;;;4.20;95.60;;;;;;2090656;28;20060;-91
2021/12/05 04:27:28;;;;;;;5.72;2.05;;;4.20;95.60;;;;;;2082607;28;20025;-91
2021/12/05 04:28:29;;;;;;;6.63;2.50;;;4.20;95.60;;;;;;2072457;28;20105;-90
2021/12/05 04:29:31;;;;;;;5.15;2.08;;;4.20;95.60;;;;;;2066918;28;20027;-90
2021/12/05 04:30:33;;;;;;;6.45;2.20;;;4.20;95.60;;;;;;2065039;28;20105;-91
2021/12/05 04:31:36;;;;;;;5.60;2.33;;;4.20;95.60;;;;;;2080807;28;20124;-90
2021/12/05 04:32:36;;;;;;;5.85;2.47;;;4.20;95.60;;;;;;2090501;28;20032;-90
2021/12/05 04:33:38;;;;;;;6.72;2.42;;;4.20;95.60;;;;;;2080288;28;20117;-90
2021/12/05 04:34:39;;;;;;;6.65;2.17;;;4.20;95.60;;;;;;2076834;28;20503;-90
2021/12/05 04:35:39;;;;;;;7.15;2.22;;;4.20;95.60;;;;;;2083316;28;20033;-91
2021/12/05 04:36:42;;;;;;;5.30;1.90;;;4.20;95.60;;;;;;2090920;28;20443;-91
2021/12/05 04:37:43;;;;;;;6.93;2.38;;;4.20;95.60;;;;;;2089849;28;20013;-91
2021/12/05 04:38:45;;;;;;;5.18;2.20;;;4.20;95.60;;;;;;2080311;28;20029;-90
2021/12/05 04:39:46;;;;;;;6.82;2.20;;;4.20;95.60;;;;;;2081022;28;20017;-91
2021/12/05 04:40:50;;;;;;;4.15;1.95;;;4.20;95.60;;;;;;2089388;28;20029;-91
2021/12/05 04:41:51;;;;;;;5.90;2.13;;;4.30;95.60;;;;;;2081224;28;20033;-91
2021/12/05 04:42:53;;;;;;;6.47;2.40;;;4.20;95.60;;;;;;2081364;28;20045;-91
2021/12/05 04:43:54;;;;;;;7.35;2.60;;;4.30;95.60;;;;;;2081871;28;20033;-91
2021/12/05 04:44:55;;;;;;;6.65;2.42;;;4.20;95.50;;;;;;2082359;28;20030;-91
2021/12/05 04:45:56;;;;;;;5.97;2.40;;;4.30;95.60;;;;;;2084991;28;20124;-91
2021/12/05 04:46:57;;;;;;;7.85;2.85;;;4.30;95.60;;;;;;2090231;28;20550;-91
2021/12/05 04:47:58;;;;;;;6.88;2.60;;;4.20;95.50;;;;;;2089855;28;20479;-91
2021/12/05 04:49:00;;;;;;;5.43;2.33;;;4.30;95.60;;;;;;2088869;28;20039;-91
2021/12/05 04:50:01;;;;;;;7.00;2.53;;;4.30;95.60;;;;;;2089533;28;20133;-90
2021/12/05 04:51:03;;;;;;;5.70;2.40;;;4.30;95.60;;;;;;2088694;28;20128;-91
2021/12/05 04:52:04;;;;;;;6.22;2.72;;;4.20;95.50;;;;;;2090742;28;20078;-91
2021/12/05 04:53:05;;;;;;;8.32;2.78;;;4.20;95.50;;;;;;2090160;28;20037;-91
2021/12/05 04:54:09;;;;;;;4.25;2.20;;;4.30;95.50;;;;;;2090221;28;20326;-91
2021/12/05 04:55:11;;;;;;;7.35;2.72;;;4.20;95.50;;;;;;2077947;28;20059;-91
2021/12/05 04:56:12;;;;;;;6.75;2.55;;;4.30;95.60;;;;;;2081071;28;20034;-91
2021/12/05 04:57:13;;;;;;;5.72;2.47;;;4.30;95.50;;;;;;2065737;28;20026;-91
2021/12/05 04:58:14;;;;;;;5.15;2.30;;;4.30;95.50;;;;;;2075895;28;20150;-91
2021/12/05 04:59:17;;;;;;;6.72;2.42;;;4.30;95.50;;;;;;2079940;28;20033;-90
2021/12/05 05:00:20;;;;;;;6.25;2.42;;;4.30;95.60;;;;;;2089016;28;20025;-90
2021/12/05 05:01:21;;;;;;;7.18;2.72;;;4.30;95.80;;;;;;2089126;28;20025;-90
2021/12/05 05:02:22;;;;;;;5.65;2.38;;;4.30;95.50;;;;;;2089111;28;20025;-90
2021/12/05 05:03:24;;;;;;;6.03;2.20;;;4.30;95.50;;;;;;2072901;28;20583;-90
2021/12/05 05:04:29;;;;;;;4.50;2.38;;;4.30;95.80;;;;;;2072887;28;20037;-90
2021/12/05 05:05:31;;;;;;;3.42;2.08;;;4.30;95.50;;;;;;2090106;28;20033;-89
2021/12/05 05:06:32;;;;;;;4.82;2.13;;;4.30;95.50;;;;;;2089411;28;20520;-91
2021/12/05 05:07:33;;;;;;;7.25;2.45;;;4.30;95.50;;;;;;2079749;28;20029;-90
2021/12/05 05:08:34;;;;;;;6.38;2.55;;;4.30;95.50;;;;;;2089686;28;20033;-90
2021/12/05 05:09:35;;;;;;;4.22;2.25;;;4.30;95.50;;;;;;2089730;28;20036;-91
2021/12/05 05:10:36;;;;;;;5.70;2.53;;;4.40;95.50;;;;;;2081605;28;20104;-90
2021/12/05 05:11:37;;;;;;;7.20;3.00;;;4.30;95.50;;;;;;2063935;28;20453;-90
2021/12/05 05:12:38;;;;;;;4.60;2.13;;;4.30;95.50;;;;;;2074417;28;20030;-90
2021/12/05 05:13:40;;;;;;;5.22;2.40;;;4.30;95.50;;;;;;2081541;28;20046;-90
2021/12/05 05:14:41;;;;;;;6.13;2.40;;;4.40;95.50;;;;;;2082161;28;20025;-91
2021/12/05 05:15:41;;;;;;;5.15;2.60;;;4.40;95.50;;;;;;2080992;28;20029;-90
2021/12/05 05:16:44;;;;;;;6.25;2.50;;;4.30;95.50;;;;;;2081560;28;20550;-90
2021/12/05 05:17:45;;;;;;;5.40;2.50;;;4.40;95.50;;;;;;2089700;28;20033;-90
2021/12/05 05:19:57;;;;;;;7.38;2.90;;;4.40;95.50;;;;;;2081397;28;20506;-90
2021/12/05 05:21:08;;;;;;;6.78;2.63;;;4.40;95.50;;;;;;2088714;28;20030;-90
2021/12/05 05:25:09;;;;;;;7.72;3.92;;;4.40;95.50;;;;;;2088567;28;20040;-91
2021/12/05 05:29:14;;;;;;;5.88;3.72;;;4.40;95.40;;;;;;2070263;28;20023;-90
2021/12/05 05:30:15;;;;;;;6.30;3.60;;;4.40;95.40;;;;;;2073482;28;20471;-90
2021/12/05 05:45:59;;;;;;;5.90;3.83;;;4.40;95.30;;;;;;2089444;28;20029;-89
2021/12/05 05:46:38;;;;;;;5.38;3.40;;;4.40;95.30;;;;;;2083874;28;20059;-90
2021/12/05 05:47:52;;;;;;;6.70;3.50;;;4.40;95.30;;;;;;2089137;28;20480;-90
2021/12/05 05:50:23;;;;;;;7.00;3.65;;;4.40;95.30;;;;;;2070796;28;20041;-90
2021/12/05 05:51:24;;;;;;;6.68;3.70;;;4.40;95.30;;;;;;2061056;28;20391;-90
2021/12/05 05:52:27;;;;;;;7.15;3.30;;;4.40;95.30;;;;;;2072304;28;20048;-91
2021/12/05 05:53:28;;;;;;;5.35;3.70;;;4.50;95.30;;;;;;2080106;28;20025;-90
2021/12/05 05:54:29;;;;;;;7.20;3.67;;;4.50;95.30;;;;;;2072925;28;20026;-90
2021/12/05 05:55:30;;;;;;;5.90;3.33;;;4.50;95.30;;;;;;2073366;28;20462;-90
2021/12/05 05:56:32;;;;;;;5.60;3.65;;;4.50;95.30;;;;;;2080827;28;20081;-89
2021/12/05 05:57:46;;;;;;;6.03;3.38;;;4.50;95.30;;;;;;2081157;28;20033;-89
2021/12/05 05:58:53;;;;;;;5.35;3.30;;;4.50;95.30;;;;;;2083015;28;20025;-89
2021/12/05 06:00:05;;;;;;;6.15;3.30;;;4.50;95.30;;;;;;2090645;28;20030;-86
2021/12/05 06:01:14;;;;;;;5.18;3.25;;;4.50;95.30;;;;;;2083782;28;20041;-86
2021/12/05 06:03:22;;;;;;;5.93;2.95;;;4.50;95.30;;;;;;2090887;28;20064;-88
2021/12/05 06:04:23;;;;;;;5.20;3.20;;;4.50;95.30;;;;;;2081303;28;20026;-86
2021/12/05 06:05:24;;;;;;;5.03;3.05;;;4.50;95.30;;;;;;2091755;28;20068;-87
2021/12/05 06:06:25;;;;;;;4.53;2.80;;;4.50;95.30;;;;;;2095792;28;20021;-89
2021/12/05 06:07:26;;;;;;;5.65;2.88;;;4.50;95.30;;;;;;2087086;28;20589;-90
2021/12/05 06:08:29;;;;;;;3.90;2.65;;;4.50;95.30;;;;;;2073692;28;20120;-90
2021/12/05 06:09:30;;;;;;;5.65;2.78;;;4.50;95.30;;;;;;2073854;28;20022;-90
2021/12/05 06:10:32;;;;;;;5.30;2.85;;;4.50;95.30;;;;;;2073269;28;20061;-89
2021/12/05 06:11:33;;;;;;;4.95;2.50;;;4.60;95.40;;;;;;2065480;28;20027;-89
2021/12/05 06:12:33;;;;;;;4.80;2.40;;;4.60;95.40;;;;;;2065037;28;20105;-90
2021/12/05 06:13:37;;;;;;;4.60;2.60;;;4.60;95.40;;;;;;2067920;28;20516;-90
2021/12/05 06:14:37;;;;;;;5.35;2.58;;;4.60;95.40;;;;;;2081596;28;20080;-90
2021/12/05 06:15:38;;;;;;;4.68;2.35;;;4.60;95.40;;;;;;2072637;28;20427;-90
2021/12/05 06:16:38;;;;;;;5.03;2.58;;;4.60;95.40;;;;;;2081812;28;20060;-90
2021/12/05 06:17:40;;;;;;;5.57;2.53;;;4.60;95.40;;;;;;2087893;28;20029;-90
2021/12/05 06:18:41;;;;;;;7.68;2.92;;;4.60;95.40;;;;;;2081761;28;20022;-90
2021/12/05 06:19:42;;;;;;;6.20;3.00;;;4.60;95.30;;;;;;2080281;28;20025;-90
2021/12/05 06:20:43;;;;;;;5.53;2.50;;;4.60;95.30;;;;;;2073291;28;20034;-89
2021/12/05 06:21:43;;;;;;;5.43;2.53;;;4.60;95.30;;;;;;2088438;28;20048;-90
2021/12/05 06:22:46;;;;;;;5.93;2.58;;;4.60;95.30;;;;;;2073330;28;20121;-89
2021/12/05 06:23:47;;;;;;;5.47;2.60;;;4.60;95.30;;;;;;2072927;28;20076;-90
2021/12/05 06:24:48;;;;;;;4.38;2.38;;;4.60;95.30;;;;;;2090012;28;20021;-89
2021/12/05 06:25:50;;;;;;;5.88;2.80;;;4.60;95.30;;;;;;2086434;28;20445;-90
2021/12/05 06:26:51;;;;;;;4.43;2.30;;;4.60;95.30;;;;;;2090356;28;20068;-90
2021/12/05 06:27:54;;;;;;;5.43;2.80;;;4.60;95.30;;;;;;2088994;28;20033;-89
2021/12/05 06:29:07;;;;;;;5.07;2.45;;;4.60;95.30;;;;;;2089383;28;20087;-90
2021/12/05 06:30:16;;;;;;;4.55;2.45;;;4.60;95.30;;;;;;2088919;28;20025;-90
2021/12/05 06:46:13;;;;;;;3.38;1.80;;;4.60;95.30;;;;;;2064529;28;20058;-90
2021/12/05 06:47:14;;;;;;;3.53;2.00;;;4.60;95.30;;;;;;2087725;28;20029;-89
2021/12/05 06:48:15;;;;;;;3.20;1.95;;;4.60;95.30;;;;;;2073289;28;20105;-90
2021/12/05 06:49:16;;;;;;;4.70;2.40;;;4.60;95.30;;;;;;2074601;28;20026;-89
2021/12/05 06:50:16;;;;;;;5.55;2.47;;;4.60;95.30;;;;;;2079177;28;20091;-90
2021/12/05 06:51:21;;;;;;;5.55;2.20;;;4.60;95.60;;;;;;2082405;28;20067;-89
2021/12/05 06:52:24;;;;;;;4.65;2.50;;;4.60;95.30;;;;;;2071712;28;20072;-90
2021/12/05 06:53:25;;;;;;;3.85;2.30;;;4.50;95.30;;;;;;2079983;28;20037;-89
2021/12/05 06:54:26;;;;;;;3.80;2.20;;;4.60;95.40;;;;;;2079873;28;20121;-91
2021/12/05 06:55:27;;;;;;;6.22;2.47;;;4.60;95.40;;;;;;2077897;28;20100;-90
2021/12/05 06:56:28;;;;;;;3.15;2.33;;;4.60;95.40;;;;;;2089667;28;20529;-90
2021/12/05 06:57:28;;;;;;;4.25;2.58;;;4.60;95.40;;;;;;2082223;28;20108;-90
2021/12/05 06:58:31;;;;;;;4.97;2.47;;;4.60;95.40;;;;;;2072317;28;20034;-90
2021/12/05 06:59:33;;;;;;;5.47;2.40;;;4.60;95.40;;;;;;2083061;28;20372;-91
2021/12/05 07:00:34;;;;;;;3.20;2.30;;;4.60;95.40;;;;;;2074274;28;20026;-90
2021/12/05 07:01:35;;;;;;;4.88;2.88;;;4.60;95.40;;;;;;2083008;28;20132;-90
2021/12/05 07:02:35;;;;;;;4.75;3.00;;;4.60;95.40;;;;;;2074588;28;20034;-90
2021/12/05 07:03:39;;;;;;;3.63;2.25;;;4.60;95.40;;;;;;2071654;28;20022;-90
2021/12/05 07:06:22;;;;;;;3.90;2.38;;;4.60;95.40;;;;;;2052675;28;20066;-89
2021/12/05 07:07:26;;;;;;;3.58;2.20;;;4.60;95.70;;;;;;2079821;28;20087;-90
2021/12/05 07:08:31;;;;;;;3.50;2.30;;;4.60;95.40;;;;;;2081554;28;20030;-90
2021/12/05 07:09:32;;;;;;;5.15;2.30;;;4.60;95.40;;;;;;2070567;28;20069;-89
2021/12/05 07:10:42;;;;;;;3.53;2.40;;;4.60;95.40;;;;;;2085144;28;20034;-89
2021/12/05 07:11:55;;;;;;;5.10;2.17;;;4.60;95.40;;;;;;2090401;28;20029;-90
2021/12/05 07:19:42;;;;;;;6.10;2.92;;;4.60;95.40;;;;;;2094285;28;20075;-90
2021/12/05 07:21:59;;;;;;;3.53;2.03;;;4.60;95.40;;;;;;2073341;28;20642;-89
2021/12/05 07:23:21;;;;;;;5.88;2.65;;;4.60;95.40;;;;;;2081460;28;20043;-89
2021/12/05 07:26:12;;;;;;;4.60;2.22;;;4.60;95.40;;;;;;2073406;28;20121;-90
2021/12/05 07:40:30;;;;;;;3.97;2.58;;;4.60;95.30;;;;;;2082436;28;20108;-90
2021/12/05 07:41:54;;;;;;;6.00;2.95;;;4.60;95.30;;;;;;2076604;28;20029;-90
2021/12/05 07:42:59;;;;;;;4.57;3.00;;;4.60;95.30;;;;;;2076726;28;20068;-90
2021/12/05 07:43:59;;;;;;;5.20;2.78;;;4.60;95.30;;;;;;2092306;28;20100;-92
2021/12/05 07:45:02;;;;;;;4.68;3.00;;;4.60;95.30;;;;;;2093052;28;20242;-87
2021/12/05 07:46:06;;;;;;;3.70;2.78;;;4.60;95.30;;;;;;2097189;28;20029;-87
2021/12/05 07:47:07;;;;;;;4.55;2.60;;;4.60;95.40;;;;;;2079649;28;20013;-87
2021/12/05 07:48:16;;;;;;;4.53;2.92;;;4.60;95.40;;;;;;2067611;28;20117;-87
2021/12/05 07:49:17;;;;;;;3.85;2.85;;;4.60;95.30;;;;;;2086752;28;20033;-86
2021/12/05 07:50:24;;;;;;;4.32;2.85;;;4.60;95.30;;;;;;2088454;28;20025;-87
2021/12/05 07:51:28;;;;;;;4.32;2.90;;;4.60;95.40;;;;;;2088805;28;20032;-87
2021/12/05 07:52:30;;;;;;;4.32;3.00;;;4.60;95.40;;;;;;2084922;28;20532;-89
2021/12/05 07:53:45;;;;;;;4.13;2.83;;;4.60;95.30;;;;;;2066614;28;20460;-90
2021/12/05 07:54:52;;;;;;;3.60;2.70;;;4.60;95.40;;;;;;2076548;28;20022;-90
2021/12/05 07:55:57;;;;;;;4.15;2.70;;;4.60;95.40;;;;;;2073556;28;20069;-90
2021/12/05 07:58:21;;;;;;;3.85;2.85;;;4.60;95.30;;;;;;2083374;28;20033;-90
2021/12/05 07:59:39;;;;;;;4.55;2.90;;;4.60;95.30;;;;;;2082336;28;20056;-90
2021/12/05 08:00:56;;;;;;;3.80;2.85;;;4.60;95.30;;;;;;2083030;28;20037;-90
2021/12/05 08:14:35;;;;;;;3.10;2.40;;;4.50;95.20;;;;;;2033528;29;20111;-90
2021/12/05 08:15:57;;;;;;;2.50;1.98;;;4.50;95.20;;;;;;2046217;29;20048;-84
2021/12/05 08:17:05;;;;;;;2.85;2.20;;;4.50;95.20;;;;;;2051837;28;20035;-90
2021/12/05 08:18:06;;;;;;;2.63;2.10;;;4.50;95.20;;;;;;2049698;28;20032;-91
2021/12/05 08:19:07;;;;;;;3.40;2.35;;;4.50;95.20;;;;;;2089143;28;20036;-90
2021/12/05 08:20:11;;;;;;;3.60;2.35;;;4.50;95.30;;;;;;2082060;28;20022;-90
2021/12/05 08:21:13;;;;;;;3.30;2.35;;;4.50;95.30;;;;;;2081963;28;20272;-90
2021/12/05 08:22:15;;;;;;;3.05;2.20;;;4.50;95.30;;;;;;2090425;28;20340;-92
2021/12/05 08:23:16;;;;;;;3.22;2.33;;;4.50;95.30;;;;;;2081327;28;20523;-89
2021/12/05 08:24:17;;;;;;;3.75;2.10;;;4.50;95.30;;;;;;2082089;28;20427;-90
2021/12/05 08:25:21;;;;;;;2.83;2.13;;;4.50;95.30;;;;;;2090128;28;20041;-89
2021/12/05 08:26:30;;;;;;;3.05;2.30;;;4.50;95.30;;;;;;2081223;28;20053;-90
2021/12/05 08:27:30;;;;;;;3.75;2.20;;;4.50;95.30;;;;;;2074044;28;20491;-90
2021/12/05 08:30:50;;;;;;;3.58;2.63;;;4.50;95.30;;;;;;2089571;28;20045;-90
2021/12/05 08:35:24;;;;;;;3.33;2.72;;;4.50;95.30;;;;;;2081892;28;20495;-90
2021/12/05 09:20:31;;;;;;;4.55;3.35;;;4.70;95.20;;;;;;2088916;28;20124;-90
2021/12/05 09:24:40;;;;;;;4.75;3.38;;;4.60;95.10;;;;;;2082863;28;20040;-91
2021/12/05 09:30:09;;;;;;;4.63;3.22;;;4.60;95.20;;;;;;2064565;28;20046;-90
2021/12/05 10:08:14;;;;;;;5.07;3.67;;;4.80;95.30;;;;;;2087603;28;20029;-90
2021/12/05 10:09:31;;;;;;;4.93;3.70;;;4.80;95.30;;;;;;2079966;28;20030;-91
2021/12/05 10:11:08;;;;;;;4.72;3.47;;;4.80;95.30;;;;;;2085690;28;20029;-90
2021/12/05 10:14:20;;;;;;;4.90;3.60;;;4.80;95.30;;;;;;2089340;28;20017;-91
2021/12/05 10:16:51;;;;;;;4.68;3.38;;;4.80;95.30;;;;;;2089189;28;19917;-89
2021/12/05 10:18:34;;;;;;;4.20;3.38;;;4.80;95.30;;;;;;2089056;28;20044;-90
2021/12/05 10:37:24;;;;;;;4.10;3.28;;;5.00;95.10;;;;;;2082047;28;20291;-90
2021/12/05 10:38:49;;;;;;;3.92;3.00;;;5.00;95.10;;;;;;2089212;28;20009;-90
2021/12/05 10:40:09;;;;;;;4.32;3.10;;;5.00;95.10;;;;;;2075370;28;20030;-91
2021/12/05 10:42:36;;;;;;;4.28;3.20;;;5.00;95.10;;;;;;2081518;28;20030;-91
2021/12/05 10:43:36;;;;;;;4.57;3.17;;;5.10;95.20;;;;;;2078150;28;20049;-91
2021/12/05 10:44:46;;;;;;;5.03;3.28;;;5.10;95.20;;;;;;2070208;28;20022;-91
2021/12/05 10:45:55;;;;;;;5.05;3.50;;;5.10;95.20;;;;;;2077261;28;20463;-91
2021/12/05 10:46:55;;;;;;;4.72;3.45;;;5.10;95.20;;;;;;2069400;28;20057;-92
2021/12/05 10:47:59;;;;;;;4.03;3.20;;;5.10;95.20;;;;;;2074979;28;20034;-91
2021/12/05 10:49:08;;;;;;;4.20;3.15;;;5.20;95.20;;;;;;2083998;28;20248;-91
2021/12/05 10:50:39;;;;;;;4.43;3.13;;;5.20;95.20;;;;;;2075798;28;20026;-89
2021/12/05 10:51:41;;;;;;;;;;;5.20;95.20;;;;;;2081307;28;20033;-92
2021/12/05 10:52:42;;;;;;;4.80;3.30;;;5.20;95.20;;;;;;2082990;28;19909;-91
2021/12/05 10:53:44;;;;;;;4.13;3.05;;;5.10;95.10;;;;;;2075059;28;20125;-91
2021/12/05 10:54:56;;;;;;;4.35;3.25;;;5.20;95.10;;;;;;2074561;28;20026;-91
2021/12/05 10:56:01;;;;;;;4.97;3.20;;;5.20;95.20;;;;;;2084012;28;20392;-91
2021/12/05 10:57:03;;;;;;;4.68;3.10;;;5.20;95.20;;;;;;2077111;28;20034;-91
2021/12/05 10:58:05;;;;;;;5.63;3.50;;;5.20;95.20;;;;;;2075034;28;20563;-92
2021/12/05 10:59:21;;;;;;;4.75;3.45;;;5.20;95.20;;;;;;2075026;28;20171;-89